Time;durP1;ratioP1;P1;durP2;ratioP2;P2;SDS_P1;SDS_P2;PMS_P1;PMS_P2;Temp;Humidity;BMP_temperature;BMP_pressure;BME280_temperature;BME280_humidity;BME280_pressure;Samples;Min_cycle;Max_cycle;Signal;HPM_P1;HPM_P2
2021/01/31 00:00:28;;;;;;;301.37;28.97;;;;;;;-0.71;88.75;93772.50;4995591;28;20224;-72
2021/01/31 00:02:53;;;;;;;696.33;47.20;;;;;;;-0.84;89.14;93766.78;4995440;28;20571;-72
2021/01/31 00:05:20;;;;;;;63.80;12.23;;;;;;;-0.74;89.07;93777.84;4995107;28;20218;-72
2021/01/31 00:07:46;;;;;;;64.10;13.13;;;;;;;-0.68;89.36;93774.81;4995304;28;20343;-73
2021/01/31 00:10:13;;;;;;;99.17;16.10;;;;;;;-0.63;89.21;93767.59;4957448;28;20183;-72
2021/01/31 00:12:38;;;;;;;178.07;18.53;;;;;;;-0.74;88.73;93777.03;4968369;28;20224;-72
2021/01/31 00:15:07;;;;;;;117.43;14.80;;;;;;;-0.72;88.68;93770.06;4978515;28;20239;-72
2021/01/31 00:17:33;;;;;;;77.87;12.43;;;;;;;-0.84;89.24;93769.34;4941504;28;20972;-72
2021/01/31 00:19:58;;;;;;;265.23;23.70;;;;;;;-0.87;89.49;93772.13;4957544;28;20190;-72
2021/01/31 00:22:23;;;;;;;299.93;24.47;;;;;;;-0.95;89.15;93780.38;4975679;28;20242;-71
2021/01/31 00:24:53;;;;;;;181.10;19.00;;;;;;;-1.00;89.12;93784.22;4975206;28;20186;-71
2021/01/31 00:27:20;;;;;;;100.37;15.57;;;;;;;-0.99;89.52;93788.38;4975480;28;20208;-72
2021/01/31 00:29:45;;;;;;;65.07;12.70;;;;;;;-0.90;89.53;93783.34;4958193;28;20208;-72
2021/01/31 00:32:11;;;;;;;312.77;28.10;;;;;;;-0.91;89.45;93781.75;4975596;28;20222;-72
2021/01/31 00:34:36;;;;;;;115.63;15.83;;;;;;;-0.81;88.85;93788.66;4957913;28;20474;-72
2021/01/31 00:37:01;;;;;;;18.63;9.80;;;;;;;-0.84;89.13;93794.00;4975416;28;20204;-72
2021/01/31 00:39:27;;;;;;;39.60;9.27;;;;;;;-0.88;89.00;93788.34;4975380;28;20187;-72
2021/01/31 00:41:52;;;;;;;51.00;11.60;;;;;;;-0.88;89.03;93780.72;4974931;28;20230;-72
2021/01/31 00:44:17;;;;;;;58.37;11.10;;;;;;;-1.00;88.72;93779.94;4975056;28;20184;-73
2021/01/31 00:46:43;;;;;;;68.00;13.27;;;;;;;-0.95;89.41;93779.56;4941740;28;20227;-72
2021/01/31 00:49:09;;;;;;;105.57;13.20;;;;;;;-0.97;89.34;93778.88;4975217;28;20184;-71
2021/01/31 00:51:35;;;;;;;254.07;20.17;;;;;;;-1.01;89.61;93780.84;4957955;28;20185;-72
2021/01/31 00:54:00;;;;;;;33.07;9.90;;;;;;;-0.94;89.26;93776.91;4975056;28;20187;-72
2021/01/31 00:56:25;;;;;;;30.20;9.77;;;;;;;-0.82;89.06;93775.09;4957372;28;20672;-72
2021/01/31 00:58:51;;;;;;;26.67;10.17;;;;;;;-0.82;89.32;93775.09;4957742;28;20224;-72
2021/01/31 01:01:18;;;;;;;27.03;8.83;;;;;;;-0.76;89.25;93773.81;4957653;28;20547;-72
2021/01/31 01:03:44;;;;;;;53.00;10.73;;;;;;;-0.77;89.17;93784.94;4957613;28;20191;-73
2021/01/31 01:06:10;;;;;;;56.20;10.90;;;;;;;-0.83;89.01;93787.97;4974485;28;20223;-72
2021/01/31 01:08:35;;;;;;;16.80;9.43;;;;;;;-0.83;88.72;93790.53;4957504;28;20190;-72
2021/01/31 01:11:01;;;;;;;15.77;8.07;;;;;;;-0.72;89.37;93790.47;4957345;28;20274;-72
2021/01/31 01:13:27;;;;;;;21.10;8.70;;;;;;;-0.75;88.79;93795.81;4941515;28;20251;-72
2021/01/31 01:15:52;;;;;;;11.50;8.00;;;;;;;-0.69;88.55;93796.16;4957083;28;20204;-72
2021/01/31 01:18:18;;;;;;;19.53;9.30;;;;;;;-0.70;88.48;93796.28;4957388;28;20191;-72
2021/01/31 01:20:43;;;;;;;12.97;9.57;;;;;;;-0.77;88.68;93803.59;4974195;28;20232;-72
2021/01/31 01:23:08;;;;;;;12.73;8.00;;;;;;;-0.74;88.48;93802.53;4974443;28;20184;-72
2021/01/31 01:25:34;;;;;;;57.53;11.57;;;;;;;-0.75;88.50;93801.72;4956948;28;20209;-72
2021/01/31 01:27:59;;;;;;;63.53;12.37;;;;;;;-0.77;88.36;93802.78;4957164;28;20210;-72
2021/01/31 01:30:28;;;;;;;191.50;16.97;;;;;;;-0.76;88.96;93804.41;4974537;28;20215;-72
2021/01/31 01:32:54;;;;;;;221.57;18.07;;;;;;;-0.77;88.57;93808.69;4957079;28;20207;-72
2021/01/31 01:35:19;;;;;;;102.17;11.97;;;;;;;-0.76;88.71;93810.31;4974066;28;20211;-72
2021/01/31 01:37:45;;;;;;;226.00;19.03;;;;;;;-0.76;88.72;93812.06;4956782;28;20204;-72
2021/01/31 01:40:28;;;;;;;119.77;13.90;;;;;;;-0.78;88.55;93812.19;4956992;28;20183;-73
2021/01/31 01:42:53;;;;;;;63.10;10.33;;;;;;;-0.70;88.88;93812.38;4941144;28;20622;-72
2021/01/31 01:45:20;;;;;;;150.87;14.90;;;;;;;-0.76;88.88;93810.31;4940474;28;20293;-72
2021/01/31 01:47:47;;;;;;;109.17;13.97;;;;;;;-0.70;88.58;93804.72;4956628;28;20201;-72
2021/01/31 01:50:36;;;;;;;62.97;11.57;;;;;;;-0.60;88.63;93805.59;4940843;28;20531;-72
2021/01/31 01:53:02;;;;;;;218.97;17.93;;;;;;;-0.65;88.62;93805.16;4956659;28;20177;-72
2021/01/31 01:55:32;;;;;;;155.80;16.73;;;;;;;-0.62;89.04;93802.38;4955633;28;20183;-73
2021/01/31 01:58:05;;;;;;;243.77;17.53;;;;;;;-0.77;88.71;93807.88;4940770;28;20207;-72
2021/01/31 02:00:32;;;;;;;321.20;25.07;;;;;;;-0.87;89.06;93806.06;4973609;28;20267;-72
2021/01/31 02:02:57;;;;;;;144.47;16.77;;;;;;;-0.78;88.89;93808.81;4968330;28;20195;-72
2021/01/31 02:05:23;;;;;;;190.13;15.70;;;;;;;-0.76;88.94;93809.50;4958991;28;20280;-72
2021/01/31 02:07:49;;;;;;;229.50;19.60;;;;;;;-0.74;89.03;93815.28;4975649;28;20261;-73
2021/01/31 02:10:16;;;;;;;551.73;32.40;;;;;;;-0.84;89.40;93822.03;4975549;28;20178;-72
2021/01/31 02:12:41;;;;;;;473.20;32.70;;;;;;;-0.75;89.34;93826.41;4975515;28;20187;-72
2021/01/31 02:15:08;;;;;;;275.37;21.53;;;;;;;-0.73;89.15;93814.34;4959074;28;20673;-72
2021/01/31 02:17:55;;;;;;;518.93;37.93;;;;;;;-0.71;89.34;93822.66;4975498;28;20257;-72
2021/01/31 02:20:26;;;;;;;454.73;34.47;;;;;;;-0.83;89.26;93821.09;4975113;28;20184;-72
2021/01/31 02:23:21;;;;;;;237.17;21.93;;;;;;;-0.84;89.52;93827.94;4992849;28;20212;-72
2021/01/31 02:26:01;;;;;;;548.80;34.40;;;;;;;-0.84;89.43;93830.50;4958967;28;20225;-72
2021/01/31 02:28:47;;;;;;;381.73;29.23;;;;;;;-0.89;89.76;93828.28;4992851;28;20379;-73
2021/01/31 02:31:46;;;;;;;539.97;37.97;;;;;;;-0.89;89.86;93830.03;4992718;28;20183;-73
2021/01/31 02:34:43;;;;;;;294.50;21.93;;;;;;;-0.86;89.76;93834.91;4959136;28;20179;-73
2021/01/31 02:37:25;;;;;;;625.63;41.77;;;;;;;-0.90;90.01;93836.88;4975198;28;20205;-72
2021/01/31 02:40:07;;;;;;;577.77;38.80;;;;;;;-1.00;89.99;93838.53;4975148;28;20193;-73
2021/01/31 02:42:42;;;;;;;341.07;26.00;;;;;;;-0.92;89.91;93832.84;4992691;28;20183;-72
2021/01/31 02:45:14;;;;;;;158.17;16.47;;;;;;;-0.88;89.76;93831.69;4974717;28;20206;-73
2021/01/31 02:47:45;;;;;;;148.33;18.80;;;;;;;-0.87;89.59;93843.50;4975121;28;20208;-73
2021/01/31 02:50:20;;;;;;;275.73;23.13;;;;;;;-0.86;90.10;93835.72;4975018;28;20182;-73
2021/01/31 02:53:09;;;;;;;493.33;35.97;;;;;;;-0.81;90.40;93834.53;4958968;28;20214;-72
2021/01/31 02:55:41;;;;;;;537.67;42.30;;;;;;;-0.88;90.16;93837.59;4974685;28;20191;-72
2021/01/31 02:58:11;;;;;;;600.87;41.87;;;;;;;-0.99;90.23;93841.88;4959072;28;20202;-72
2021/01/31 03:01:10;;;;;;;257.27;20.23;;;;;;;-1.03;90.40;93838.78;4974940;28;20584;-72
2021/01/31 03:03:44;;;;;;;801.70;57.23;;;;;;;-1.07;90.54;93845.03;4975162;28;20191;-72
2021/01/31 03:06:13;;;;;;;804.60;58.03;;;;;;;-1.17;90.97;93842.38;4974132;28;20221;-72
2021/01/31 03:08:41;;;;;;;718.63;52.90;;;;;;;-1.11;91.13;93845.41;4974902;28;20273;-72
2021/01/31 03:11:18;;;;;;;540.87;35.97;;;;;;;-1.10;90.73;93840.19;4974700;28;20190;-72
2021/01/31 03:13:56;;;;;;;608.10;44.60;;;;;;;-1.09;90.81;93839.25;4958792;28;20186;-73
2021/01/31 03:16:25;;;;;;;1052.53;67.47;;;;;;;-1.19;91.06;93844.25;4991944;28;20199;-73
2021/01/31 03:19:21;;;;;;;344.03;29.10;;;;;;;-1.08;90.39;93833.22;4958384;28;20588;-73
2021/01/31 03:21:47;;;;;;;345.87;30.70;;;;;;;-1.07;90.78;93832.28;4983903;28;20207;-73
2021/01/31 03:24:29;;;;;;;436.63;35.37;;;;;;;-1.07;90.73;93832.28;4958391;28;20556;-73
2021/01/31 03:27:21;;;;;;;604.13;47.37;;;;;;;-0.99;90.93;93840.13;4958560;28;20230;-73
2021/01/31 03:29:47;;;;;;;157.23;19.40;;;;;;;-0.90;90.59;93843.72;4974297;28;20337;-72
2021/01/31 03:32:18;;;;;;;706.63;48.00;;;;;;;-1.08;90.26;93838.31;4974620;28;20265;-72
2021/01/31 03:34:48;;;;;;;320.63;27.37;;;;;;;-1.01;90.57;93826.72;4974613;28;20189;-72
2021/01/31 03:37:14;;;;;;;806.97;54.53;;;;;;;-1.10;90.15;93829.19;4974594;28;20746;-72
2021/01/31 03:39:42;;;;;;;383.23;30.90;;;;;;;-1.04;90.51;93837.16;4974498;28;20266;-72
2021/01/31 03:42:07;;;;;;;497.80;36.90;;;;;;;-1.11;90.74;93827.56;4974497;28;20651;-72
2021/01/31 03:44:33;;;;;;;1160.13;80.00;;;;;;;-1.21;90.67;93837.66;4991757;28;20241;-72
2021/01/31 03:47:02;;;;;;;858.37;57.13;;;;;;;-1.22;90.90;93843.69;4958179;28;20215;-73
2021/01/31 03:49:31;;;;;;;865.70;66.10;;;;;;;-1.30;90.74;93843.47;4974585;28;20194;-73
2021/01/31 03:51:56;;;;;;;302.77;27.97;;;;;;;-1.21;90.79;93853.75;4974523;28;20183;-73
2021/01/31 03:54:22;;;;;;;622.00;47.77;;;;;;;-1.19;90.62;93862.06;4974160;28;20253;-73
2021/01/31 03:56:52;;;;;;;983.57;68.40;;;;;;;-1.23;90.76;93878.53;4974382;28;20198;-72
2021/01/31 03:59:26;;;;;;;1028.13;75.20;;;;;;;-1.29;91.46;93878.19;4974447;28;20663;-73
2021/01/31 04:01:53;;;;;;;1444.57;105.07;;;;;;;-1.34;91.28;93886.16;4958562;28;20665;-72
2021/01/31 04:04:23;;;;;;;788.90;57.50;;;;;;;-1.30;91.24;93882.47;4974145;28;20190;-73
2021/01/31 04:06:51;;;;;;;1263.87;89.87;;;;;;;-1.42;91.08;93878.28;4973875;28;20223;-72
2021/01/31 04:09:17;;;;;;;588.53;43.93;;;;;;;-1.31;90.86;93877.50;4958299;28;20277;-72
2021/01/31 04:11:44;;;;;;;383.20;32.43;;;;;;;-1.27;90.92;93878.88;4974367;28;20187;-73
2021/01/31 04:14:45;;;;;;;453.23;38.50;;;;;;;-1.29;90.85;93881.53;4974321;28;20727;-73
2021/01/31 04:17:10;;;;;;;408.83;41.17;;;;;;;-1.20;90.88;93882.56;4934821;29;20261;-72
2021/01/31 04:19:36;;;;;;;421.50;36.13;;;;;;;-1.22;90.96;93884.44;4953621;28;20319;-72
2021/01/31 04:22:01;;;;;;;778.03;56.63;;;;;;;-1.31;90.86;93880.03;4954087;29;20619;-73
2021/01/31 04:24:26;;;;;;;584.03;41.67;;;;;;;-1.34;90.80;93872.63;4953788;28;20192;-72
2021/01/31 04:26:51;;;;;;;155.43;19.70;;;;;;;-1.14;90.83;93866.81;4937946;29;20744;-72
2021/01/31 04:29:17;;;;;;;901.43;62.00;;;;;;;-1.19;90.31;93874.81;4937845;29;20228;-72
2021/01/31 04:31:42;;;;;;;121.50;19.20;;;;;;;-1.11;90.42;93869.13;4937971;29;20283;-73
2021/01/31 04:34:07;;;;;;;530.00;40.37;;;;;;;-1.23;90.34;93872.63;4937733;29;20228;-71
2021/01/31 04:36:33;;;;;;;393.60;31.90;;;;;;;-1.18;90.59;93865.44;4937426;29;20216;-73
2021/01/31 04:38:58;;;;;;;324.53;29.73;;;;;;;-1.16;90.88;93871.22;4937830;29;20187;-73
2021/01/31 04:41:30;;;;;;;674.90;50.57;;;;;;;-1.24;90.82;93866.69;4953708;29;20265;-72
2021/01/31 04:43:56;;;;;;;310.37;28.07;;;;;;;-1.24;90.81;93868.44;4937493;29;20188;-73
2021/01/31 04:46:22;;;;;;;820.37;62.33;;;;;;;-1.27;90.87;93873.78;4921322;29;20220;-73
2021/01/31 04:48:57;;;;;;;524.13;38.10;;;;;;;-1.22;90.52;93874.25;4953615;28;20218;-73
2021/01/31 04:51:38;;;;;;;512.53;41.53;;;;;;;-1.20;90.57;93857.09;4937623;29;20189;-73
2021/01/31 04:54:22;;;;;;;463.90;35.60;;;;;;;-1.25;90.90;93861.72;4952851;28;20287;-73
2021/01/31 04:57:04;;;;;;;228.07;24.70;;;;;;;-1.21;90.40;93861.38;4994426;28;20199;-73
2021/01/31 04:59:33;;;;;;;340.30;29.97;;;;;;;-1.25;90.47;93859.19;4976988;28;20667;-73
2021/01/31 05:02:11;;;;;;;262.57;26.10;;;;;;;-1.20;90.49;93863.00;4977077;28;20203;-73
2021/01/31 05:04:48;;;;;;;245.37;24.23;;;;;;;-1.19;90.39;93869.72;4976674;28;20178;-72
2021/01/31 05:07:13;;;;;;;155.97;23.97;;;;;;;-1.17;90.48;93864.50;4976619;28;20648;-73
2021/01/31 05:09:38;;;;;;;222.80;24.17;;;;;;;-1.15;90.91;93860.94;4976816;28;20191;-73
2021/01/31 05:12:12;;;;;;;236.97;25.20;;;;;;;-1.11;90.78;93855.59;4960660;28;20638;-73
2021/01/31 05:15:00;;;;;;;163.73;22.27;;;;;;;-0.96;90.59;93852.66;4976615;28;20234;-73
2021/01/31 05:17:26;;;;;;;145.53;19.50;;;;;;;-0.95;90.30;93851.72;4960467;28;20350;-73
2021/01/31 05:19:51;;;;;;;187.80;22.77;;;;;;;-0.99;90.26;93847.78;4976274;28;20688;-72
2021/01/31 05:22:20;;;;;;;95.53;18.37;;;;;;;-0.98;90.15;93840.94;4960398;28;20641;-72
2021/01/31 05:24:46;;;;;;;74.37;19.03;;;;;;;-0.93;90.36;93844.75;4976349;28;20177;-72
2021/01/31 05:27:12;;;;;;;207.77;23.23;;;;;;;-0.96;90.13;93839.91;4993785;28;20577;-72
2021/01/31 05:29:39;;;;;;;258.23;26.33;;;;;;;-1.01;89.80;93851.38;4975297;28;20184;-73
2021/01/31 05:32:17;;;;;;;65.50;18.43;;;;;;;-0.99;89.93;93865.63;4976545;28;20270;-72
2021/01/31 05:34:50;;;;;;;441.00;31.37;;;;;;;-1.04;90.04;93867.72;4976176;28;20658;-73
2021/01/31 05:37:28;;;;;;;444.67;33.77;;;;;;;-1.07;90.02;93869.69;4976393;28;20614;-72
2021/01/31 05:40:04;;;;;;;317.80;31.23;;;;;;;-1.04;89.95;93880.47;4976276;28;20551;-73
2021/01/31 05:42:35;;;;;;;561.37;44.67;;;;;;;-1.17;90.22;93888.22;4975976;28;20195;-72
2021/01/31 05:45:10;;;;;;;947.43;66.43;;;;;;;-1.20;90.27;93877.47;4975897;28;20647;-72
2021/01/31 05:47:41;;;;;;;278.50;29.67;;;;;;;-1.12;90.21;93869.25;4975985;28;20207;-72
2021/01/31 05:50:30;;;;;;;164.77;21.93;;;;;;;-1.05;90.16;93870.41;4976105;28;20208;-73
2021/01/31 05:52:55;;;;;;;500.90;39.77;;;;;;;-1.07;90.37;93878.13;4976149;28;20320;-71
2021/01/31 05:55:29;;;;;;;644.67;51.63;;;;;;;-1.16;90.53;93878.84;4975674;28;20186;-73
2021/01/31 05:58:16;;;;;;;211.53;26.83;;;;;;;-1.10;90.74;93885.22;4976008;28;20175;-71
2021/01/31 06:00:42;;;;;;;410.27;37.97;;;;;;;-1.09;90.64;93890.19;4975790;28;20187;-72
2021/01/31 06:03:09;;;;;;;301.13;28.90;;;;;;;-1.13;90.86;93888.00;4959672;28;20186;-73
2021/01/31 06:05:34;;;;;;;488.30;42.23;;;;;;;-1.06;90.60;93892.53;4975235;28;20356;-72
2021/01/31 06:08:06;;;;;;;201.20;24.20;;;;;;;-1.04;90.62;93897.50;4975815;28;20273;-72
2021/01/31 06:10:35;;;;;;;58.97;16.57;;;;;;;-1.01;90.50;93898.06;4975691;28;20571;-72
2021/01/31 06:13:07;;;;;;;231.73;23.87;;;;;;;-1.02;90.26;93893.91;4975537;28;20182;-72
2021/01/31 06:15:42;;;;;;;466.70;41.20;;;;;;;-1.09;90.64;93902.94;4975256;28;20246;-72
2021/01/31 06:18:16;;;;;;;394.80;32.07;;;;;;;-1.04;90.09;93905.13;4975615;28;20334;-71
2021/01/31 06:20:43;;;;;;;711.50;49.60;;;;;;;-1.10;90.34;93915.78;4976031;28;20342;-71
2021/01/31 06:23:31;;;;;;;803.43;58.17;;;;;;;-1.13;90.55;93914.28;4975536;28;20187;-74
2021/01/31 06:25:56;;;;;;;369.50;30.50;;;;;;;-1.02;90.51;93921.91;4975296;28;20223;-70
2021/01/31 06:28:24;;;;;;;233.20;24.90;;;;;;;-0.96;90.27;93920.66;4975523;28;20188;-73
2021/01/31 06:31:38;;;;;;;471.20;36.40;;;;;;;-1.02;90.40;93916.81;4975466;28;20191;-73
2021/01/31 06:34:03;;;;;;;360.33;32.30;;;;;;;-1.11;90.51;93917.53;4916940;29;20705;-73
2021/01/31 06:37:10;;;;;;;861.93;63.37;;;;;;;-1.20;90.43;93923.31;4932545;29;20220;-73
2021/01/31 06:39:37;;;;;;;126.00;18.43;;;;;;;-1.13;90.56;93916.84;4916632;29;20241;-73
2021/01/31 06:42:39;;;;;;;223.43;24.53;;;;;;;-1.08;90.52;93917.28;4932321;29;20205;-73
2021/01/31 06:45:12;;;;;;;137.63;21.03;;;;;;;-1.04;90.12;93911.03;4932115;29;20200;-73
2021/01/31 06:47:55;;;;;;;216.20;23.77;;;;;;;-1.05;90.46;93914.53;4932254;29;20205;-73
2021/01/31 06:50:32;;;;;;;225.50;25.37;;;;;;;-1.01;89.90;93922.72;4932354;29;20194;-72
2021/01/31 06:53:15;;;;;;;194.43;23.83;;;;;;;-0.99;89.90;93926.78;4932316;29;20193;-73
2021/01/31 06:55:46;;;;;;;183.60;23.73;;;;;;;-1.02;89.78;93924.47;4916206;29;20186;-73
2021/01/31 06:58:22;;;;;;;450.40;38.67;;;;;;;-1.15;90.33;93936.50;4932346;29;20193;-72
2021/01/31 07:00:56;;;;;;;488.43;40.10;;;;;;;-1.19;90.13;93940.22;4932245;29;20212;-72
2021/01/31 07:03:58;;;;;;;853.20;63.13;;;;;;;-1.29;90.35;93955.41;4900627;29;20298;-72
2021/01/31 07:06:51;;;;;;;1048.90;82.97;;;;;;;-1.39;90.82;93944.28;4991679;28;20217;-72
2021/01/31 07:09:24;;;;;;;298.83;28.47;;;;;;;-1.21;90.47;93952.28;4964316;28;20194;-73
2021/01/31 07:12:19;;;;;;;395.03;37.37;;;;;;;-1.16;90.23;93956.06;4974892;28;20189;-72
2021/01/31 07:14:59;;;;;;;542.03;43.13;;;;;;;-1.19;90.57;93965.69;4992000;28;20178;-73
2021/01/31 07:17:51;;;;;;;678.77;51.90;;;;;;;-1.21;90.30;93972.66;4974780;28;20690;-72
2021/01/31 07:20:16;;;;;;;476.63;39.83;;;;;;;-1.27;90.83;93978.19;4988887;28;20199;-72
2021/01/31 07:22:46;;;;;;;87.03;19.10;;;;;;;-1.16;90.22;93976.44;4992385;28;20181;-71
2021/01/31 07:25:33;;;;;;;511.70;52.77;;;;;;;-1.15;90.41;93983.19;4974317;28;20654;-71
2021/01/31 07:28:07;;;;;;;196.63;26.47;;;;;;;-1.12;90.48;93977.06;4958678;28;20185;-71
2021/01/31 07:30:36;;;;;;;578.53;52.20;;;;;;;-1.12;89.90;93977.06;4974795;28;20321;-73
2021/01/31 07:33:08;;;;;;;557.40;45.07;;;;;;;-1.17;90.68;93982.47;4974673;28;20210;-74
2021/01/31 07:35:56;;;;;;;649.03;60.03;;;;;;;-1.25;90.51;93979.69;4958131;28;20179;-74
2021/01/31 07:38:32;;;;;;;835.73;74.33;;;;;;;-1.23;90.68;93980.41;4992070;28;20183;-73
2021/01/31 07:40:58;;;;;;;497.57;44.07;;;;;;;-1.21;90.73;93975.19;4974551;28;20214;-73
2021/01/31 07:43:27;;;;;;;339.00;32.77;;;;;;;-1.19;90.57;93968.25;4974694;28;20609;-72
2021/01/31 07:46:07;;;;;;;227.23;28.50;;;;;;;-1.16;90.83;93973.09;4991553;28;20360;-72
2021/01/31 07:48:35;;;;;;;75.07;20.97;;;;;;;-1.06;90.47;93975.75;4974488;28;20236;-71
2021/01/31 07:51:03;;;;;;;550.37;45.73;;;;;;;-1.11;89.98;93978.66;4974525;28;20205;-72
2021/01/31 07:53:32;;;;;;;289.43;32.83;;;;;;;-1.07;90.02;93977.50;4977010;28;20252;-72
2021/01/31 07:56:22;;;;;;;706.47;60.87;;;;;;;-1.12;89.96;93977.06;4978155;28;20195;-72
2021/01/31 07:58:48;;;;;;;341.07;34.90;;;;;;;-1.19;90.16;93975.88;4995599;28;20563;-72
2021/01/31 08:01:34;;;;;;;577.80;46.33;;;;;;;-1.19;89.82;93984.34;4978202;28;20171;-72
2021/01/31 08:04:15;;;;;;;408.83;38.67;;;;;;;-1.25;90.08;93981.44;4995404;28;20183;-72
2021/01/31 08:06:41;;;;;;;308.77;31.87;;;;;;;-1.21;89.98;93977.75;4977476;28;20733;-72
2021/01/31 08:09:07;;;;;;;163.67;24.20;;;;;;;-1.10;89.76;93987.94;4974380;28;20176;-72
2021/01/31 08:11:36;;;;;;;172.00;25.27;;;;;;;-1.07;89.67;93987.69;4964625;28;20186;-72
2021/01/31 08:14:01;;;;;;;184.40;29.87;;;;;;;-1.06;89.63;93986.78;4995293;28;20263;-72
2021/01/31 08:16:47;;;;;;;237.93;28.80;;;;;;;-1.03;89.45;93986.53;4977623;28;20660;-72
2021/01/31 08:19:18;;;;;;;91.13;22.00;;;;;;;-1.04;89.14;93984.13;4994876;28;20257;-72
2021/01/31 08:21:51;;;;;;;49.27;20.53;;;;;;;-1.05;88.95;93993.50;4995193;28;20175;-71
2021/01/31 08:24:53;;;;;;;82.23;20.67;;;;;;;-0.99;89.11;93990.47;4994887;28;20830;-73
2021/01/31 08:27:41;;;;;;;165.57;23.93;;;;;;;-1.04;89.12;93989.22;4994571;28;20285;-73
2021/01/31 08:30:39;;;;;;;79.83;20.10;;;;;;;-1.01;89.03;93994.88;4978448;28;20187;-73
2021/01/31 08:33:07;;;;;;;48.83;20.67;;;;;;;-0.94;89.33;94001.13;4960207;28;20187;-71
2021/01/31 08:35:56;;;;;;;106.07;22.20;;;;;;;-0.87;88.97;94002.31;4976992;28;20245;-73
2021/01/31 08:38:28;;;;;;;141.50;24.30;;;;;;;-0.95;88.94;94001.25;4994770;28;20585;-71
2021/01/31 08:41:02;;;;;;;115.20;23.57;;;;;;;-0.90;88.81;94001.69;4975921;28;20186;-73
2021/01/31 08:43:58;;;;;;;63.13;20.87;;;;;;;-0.80;88.97;94001.81;4996702;28;20192;-71
2021/01/31 08:46:28;;;;;;;134.40;23.93;;;;;;;-0.73;88.41;94008.06;4973481;28;20215;-73
2021/01/31 08:49:14;;;;;;;76.83;20.53;;;;;;;-0.79;88.59;94008.56;4972876;28;20210;-73
2021/01/31 08:52:00;;;;;;;53.40;19.50;;;;;;;-0.71;88.31;94001.09;4956585;28;20191;-73
2021/01/31 08:54:26;;;;;;;53.63;19.90;;;;;;;-0.73;88.33;93998.69;4956505;28;20179;-73
2021/01/31 08:56:54;;;;;;;48.73;18.87;;;;;;;-0.71;88.38;94003.66;4956594;28;20675;-73
2021/01/31 08:59:38;;;;;;;33.60;19.13;;;;;;;-0.69;88.56;94010.28;4952462;28;20566;-74
2021/01/31 09:02:09;;;;;;;44.13;20.20;;;;;;;-0.70;88.76;94012.94;4969202;28;20270;-74
2021/01/31 09:04:37;;;;;;;38.53;19.33;;;;;;;-0.60;88.00;94006.22;4969525;28;20188;-73
2021/01/31 09:07:02;;;;;;;53.70;19.37;;;;;;;-0.60;88.47;94014.69;4972494;28;20278;-73
2021/01/31 09:09:31;;;;;;;67.00;21.53;;;;;;;-0.58;88.05;94020.47;4956237;28;20714;-74
2021/01/31 09:12:00;;;;;;;40.43;18.43;;;;;;;-0.42;87.79;94030.28;4972618;28;20279;-73
2021/01/31 09:14:32;;;;;;;54.93;21.80;;;;;;;-0.64;88.06;94035.41;4955942;28;20195;-74
2021/01/31 09:17:02;;;;;;;145.47;22.93;;;;;;;-0.63;88.09;94034.47;4972374;28;20220;-73
2021/01/31 09:19:27;;;;;;;186.50;26.47;;;;;;;-0.65;88.17;94036.34;4956293;28;20702;-74
2021/01/31 09:22:18;;;;;;;125.17;22.57;;;;;;;-0.59;88.48;94038.44;4977710;28;20211;-73
2021/01/31 09:24:45;;;;;;;73.63;20.73;;;;;;;-0.56;88.24;94035.63;4979289;28;20627;-73
2021/01/31 09:27:22;;;;;;;76.40;19.27;;;;;;;-0.51;87.86;94031.00;4995819;28;20667;-74
2021/01/31 09:29:48;;;;;;;108.90;21.60;;;;;;;-0.48;88.12;94035.06;4995613;28;20196;-74
2021/01/31 09:32:25;;;;;;;89.33;19.53;;;;;;;-0.44;88.12;94033.88;4995977;28;20179;-73
2021/01/31 09:34:51;;;;;;;91.43;19.37;;;;;;;-0.37;87.89;94042.69;4995536;28;20213;-73
2021/01/31 09:37:27;;;;;;;52.90;18.03;;;;;;;-0.30;87.59;94034.44;4995654;28;20194;-72
2021/01/31 09:39:54;;;;;;;180.87;23.77;;;;;;;-0.41;87.92;94034.47;4995636;28;20182;-73
2021/01/31 09:42:20;;;;;;;71.90;20.00;;;;;;;-0.36;88.08;94042.56;4995320;28;20793;-72
2021/01/31 09:44:59;;;;;;;127.87;22.27;;;;;;;-0.34;87.78;94029.69;5012899;28;20178;-72
2021/01/31 09:47:24;;;;;;;52.80;17.90;;;;;;;-0.21;87.53;94032.09;4995818;28;20207;-72
2021/01/31 09:49:56;;;;;;;60.13;20.33;;;;;;;-0.26;87.21;94034.22;4979291;28;20229;-73
2021/01/31 09:52:21;;;;;;;97.90;19.57;;;;;;;-0.31;87.28;94024.34;4995392;28;20174;-72
2021/01/31 09:54:46;;;;;;;110.83;21.10;;;;;;;-0.38;87.67;94024.00;5012625;28;20182;-72
2021/01/31 09:57:22;;;;;;;103.93;21.00;;;;;;;-0.22;87.36;94025.38;4995062;28;20621;-72
2021/01/31 09:59:48;;;;;;;30.87;18.03;;;;;;;-0.17;87.11;94028.41;4995036;28;20170;-72
2021/01/31 10:02:22;;;;;;;72.90;20.57;;;;;;;-0.22;87.35;94027.94;4995526;28;20174;-72
2021/01/31 10:04:58;;;;;;;33.17;18.63;;;;;;;-0.07;87.61;94024.19;5011330;28;20175;-73
2021/01/31 10:07:31;;;;;;;44.37;17.33;;;;;;;-0.09;87.57;94015.81;4994877;28;20272;-72
2021/01/31 10:09:57;;;;;;;61.47;18.97;;;;;;;-0.11;87.65;94020.25;4993685;28;20734;-72
2021/01/31 10:12:30;;;;;;;48.37;18.53;;;;;;;-0.02;87.94;94022.06;4995099;28;20263;-71
2021/01/31 10:15:01;;;;;;;59.00;18.63;;;;;;;0.07;87.32;94025.63;4994222;28;20182;-72
2021/01/31 10:17:34;;;;;;;42.60;18.30;;;;;;;0.13;87.15;94023.41;4994953;28;20273;-72
2021/01/31 10:20:35;;;;;;;34.83;19.70;;;;;;;-0.03;86.82;94030.66;5012516;28;20178;-72
2021/01/31 10:23:14;;;;;;;45.33;19.70;;;;;;;0.08;87.72;94024.69;4994995;28;20175;-72
2021/01/31 10:25:42;;;;;;;50.10;19.10;;;;;;;0.08;87.35;94027.25;4994372;28;20364;-72
2021/01/31 10:28:13;;;;;;;28.60;17.93;;;;;;;0.33;86.57;94028.66;4994778;28;20564;-72
2021/01/31 10:30:49;;;;;;;28.77;18.40;;;;;;;0.36;86.42;94018.22;4978539;28;20175;-72
2021/01/31 10:33:36;;;;;;;70.57;20.20;;;;;;;0.22;86.93;94037.19;4994979;28;20175;-72
2021/01/31 10:36:24;;;;;;;28.00;16.93;;;;;;;0.39;87.12;94023.06;4994349;28;20573;-72
2021/01/31 10:38:50;;;;;;;59.27;19.37;;;;;;;0.38;86.74;94024.00;5012223;28;20175;-74
2021/01/31 10:41:15;;;;;;;80.57;21.07;;;;;;;0.37;86.12;94025.75;5012269;28;20175;-72
2021/01/31 10:43:40;;;;;;;53.53;19.97;;;;;;;0.32;86.78;94021.94;4978402;28;20190;-72
2021/01/31 10:46:06;;;;;;;54.27;20.33;;;;;;;0.46;86.65;94024.22;5011841;28;20210;-74
2021/01/31 10:48:31;;;;;;;112.10;22.60;;;;;;;0.45;86.08;94020.84;4994647;28;20808;-74
2021/01/31 10:50:57;;;;;;;75.57;22.17;;;;;;;0.56;85.93;94022.53;4994763;28;20210;-72
2021/01/31 10:53:22;;;;;;;50.73;19.50;;;;;;;0.64;85.41;94016.78;5012119;28;20190;-73
2021/01/31 10:55:47;;;;;;;29.53;19.27;;;;;;;0.62;85.77;94016.94;4994157;28;20195;-74
2021/01/31 10:58:13;;;;;;;51.73;20.43;;;;;;;0.62;85.88;94011.81;4994465;28;20262;-73
2021/01/31 11:00:38;;;;;;;72.17;21.93;;;;;;;0.62;86.36;94013.53;4994404;28;20274;-73
2021/01/31 11:03:04;;;;;;;43.83;20.60;;;;;;;0.63;86.01;94010.88;4994310;28;20235;-73
2021/01/31 11:05:29;;;;;;;34.33;20.20;;;;;;;0.72;85.80;94005.00;4993738;28;20202;-73
2021/01/31 11:07:55;;;;;;;32.67;20.13;;;;;;;0.75;85.82;94009.06;4994323;28;20181;-73
2021/01/31 11:10:21;;;;;;;57.80;19.57;;;;;;;0.64;85.90;94012.50;4993414;28;20198;-73
2021/01/31 11:12:46;;;;;;;41.00;20.80;;;;;;;0.73;86.22;94003.25;4989630;28;20229;-74
2021/01/31 11:15:12;;;;;;;41.17;20.90;;;;;;;0.71;85.56;94005.94;4958306;28;20176;-73
2021/01/31 11:17:37;;;;;;;52.63;22.67;;;;;;;0.74;85.92;93997.22;4992044;28;20260;-74
2021/01/31 11:20:03;;;;;;;36.03;20.47;;;;;;;0.67;86.13;94002.00;4958535;28;20221;-73
2021/01/31 11:22:29;;;;;;;68.13;19.93;;;;;;;0.62;86.62;94006.72;4974840;28;20198;-72
2021/01/31 11:24:54;;;;;;;39.77;20.33;;;;;;;0.68;86.85;94003.63;4974127;28;20172;-73
2021/01/31 11:27:19;;;;;;;36.73;18.27;;;;;;;0.82;86.10;93995.66;4976822;28;20214;-72
2021/01/31 11:29:44;;;;;;;33.00;19.17;;;;;;;0.78;86.51;93999.38;4978056;28;20626;-74
2021/01/31 11:32:10;;;;;;;39.57;20.77;;;;;;;0.85;86.45;93990.28;4978693;28;20234;-74
2021/01/31 11:34:35;;;;;;;50.20;22.57;;;;;;;0.84;86.49;93978.44;4995773;28;20175;-73
2021/01/31 11:37:01;;;;;;;33.33;22.83;;;;;;;0.90;86.37;93972.03;4978550;28;20691;-73